Ευχαριστούμε που συμβάλλετε στη διατήρηση της σελίδας μας.

Thank you for your donations, it really helps to maintain the page.


Meteo Stats And More









Fire Weather Index (FWI)

Kastelokampos Rion more information Kastelokampos Rion


Romanos Cam more information Romanos Cam


Thunder radar more information blitzortung!


Rain radar more information rain snow radar


Visit our other weather sites:

Meteopatras.Eu in
Euweather NetworkMeteopatras.Eu in Euweather Network

Weather CloudWeather Cloud

PWS WeatherPWS Weather

Awekas NetWeather data from station Patra-Ketx

WunderGroundWeather data from station Patra-Ketx




Provided and Supervised by : Moulas Andreas

 Patra, Greece - Latitude : 38°14'21" N - Longitude : 21°45'5" E - Altitude : 56m

Nearby METAR Reports

   
LGRX - Araxos
Updated: 14-11-2019 01:50
Mostly Cloudy  
Mostly Cloudy  
   Wind: Calm
Wind: Calm
Temperature: 13°C
Dew Point: 13°C
Humidity: 100%
Barometer: 1010 hPa
Clouds: Mostly Cloudy
Visibility: More than 10 km
Cloud details: Few Clouds 1800 ft,
Partly Cloudy 2000 ft,
Mostly Cloudy 8000 ft
LGRX 132350Z 00000KT 9999 FEW018TCU SCT020 BKN080 13/13 Q1010 RETS
LGAD - Andravida
Updated: 14-11-2019 02:20
Mostly Cloudy  
Mostly Cloudy  
   Wind: ESE 9.3 km/h
Wind: ESE 9.3 km/h
Temperature: 14°C
Dew Point: 14°C
Humidity: 100%
Barometer: 1010 hPa
Clouds: Mostly Cloudy
Visibility: More than 10 km
Cloud details: Few Clouds 1800 ft,
Mostly Cloudy 2500 ft,
Mostly Cloudy 8000 ft
LGAD 140020Z 12005KT 9999 FEW018TCU BKN025 BKN080 14/14 Q1010
LGZA - Zakinthos
Updated: 13-11-2019 19:50
NOT Current
Mostly Cloudy  
Mostly Cloudy  
   Wind: Calm
Wind: Calm
Temperature: 16°C
Dew Point: 14°C
Humidity: 88%
Barometer: 1009 hPa
Clouds: Mostly Cloudy
Visibility: More than 10 km
Cloud details: Few Clouds 1800 ft,
Partly Cloudy 2000 ft,
Mostly Cloudy 7000 ft
LGZA 131750Z 00000KT 9999 FEW018TCU SCT020 BKN070 16/14 Q1009
LGKF - Kefallinia
Updated: 13-11-2019 19:50
NOT Current
Mostly Cloudy  
Mostly Cloudy  
   Wind: NW 18.5 km/h
Wind: NW 18.5 km/h
Temperature: 16°C
Dew Point: 14°C
Humidity: 88%
Barometer: 1009 hPa
Clouds: Mostly Cloudy
Visibility: More than 10 km
Cloud details: Few Clouds 1600 ft,
Partly Cloudy 2000 ft,
Mostly Cloudy 7000 ft
LGKF 131750Z 31010KT 9999 FEW016TCU SCT020 BKN070 16/14 Q1009
LGPZ - Preveza
Updated: 14-11-2019 01:50
Partly Cloudy  
Partly Cloudy  
   Wind: ENE 7.4 km/h
Wind: ENE 7.4 km/h
Temperature: 16°C
Dew Point: 15°C
Humidity: 94%
Barometer: 1010 hPa
Clouds: Partly Cloudy
Visibility: More than 10 km
Cloud details: Partly Cloudy 1800 ft
LGPZ 132350Z 06004KT 9999 SCT018 16/15 Q1010
LGKL - Kalamata
Updated: 14-11-2019 02:20
  
  
   Wind: varies 5.6 km/h
Wind: varies 5.6 km/h
Temperature: 14°C
Dew Point: 12°C
Humidity: 88%
Barometer: 1010 hPa
LGKL 140020Z AUTO VRB03KT //// // ////// 14/12 Q1010 RE//
LGKR - Kerkyra
Updated: 14-11-2019 02:20
Mostly Cloudy  
Mostly Cloudy  
   Wind: NNE 5.6 km/h
Wind: NNE 5.6 km/h
Temperature: 16°C
Dew Point: 15°C
Humidity: 94%
Barometer: 1009 hPa
Clouds: Mostly Cloudy
Visibility: More than 10 km
Cloud details: Few Clouds 1200 ft,
Partly Cloudy 1800 ft,
Mostly Cloudy 2500 ft
LGKR 140020Z 03003KT 9999 FEW012 SCT018TCU BKN025 16/15 Q1009 NOSIG
LGIO - Iwannina
Updated: 14-11-2019 02:20
  
  
   Wind: varies 1.9 km/h
Wind: varies 1.9 km/h
Temperature: 11°C
Dew Point: 10°C
Humidity: 94%
Barometer: 1011 hPa
LGIO 140020Z AUTO VRB01KT //// // ////// 11/10 Q1011 RE//
LGPZ - Leykada
Updated: 14-11-2019 01:50
Partly Cloudy  
Partly Cloudy  
   Wind: ENE 7.4 km/h
Wind: ENE 7.4 km/h
Temperature: 16°C
Dew Point: 15°C
Humidity: 94%
Barometer: 1010 hPa
Clouds: Partly Cloudy
Visibility: More than 10 km
Cloud details: Partly Cloudy 1800 ft
LGPZ 132350Z 06004KT 9999 SCT018 16/15 Q1010
LGEL - Elefsina
Updated: 14-11-2019 02:20
Mostly Cloudy  
Mostly Cloudy  
   Wind: Calm
Wind: Calm
Temperature: 13°C
Dew Point: 11°C
Humidity: 88%
Barometer: 1009 hPa
Clouds: Mostly Cloudy
Visibility: More than 10 km
Cloud details: Few Clouds 1200 ft,
Mostly Cloudy 7000 ft
LGEL 140020Z 00000KT 9999 FEW012 BKN070 13/11 Q1009
LGKC - Kythira
Updated: 13-11-2019 18:50
NOT Current
Overcast  
Overcast  
   Wind: East 16.7 km/h
Wind: East 16.7 km/h
Temperature: 15°C
Dew Point: 14°C
Humidity: 94%
Barometer: 1011 hPa
Clouds: Overcast
Visibility: 8 km
Cloud details: Few Clouds 300 ft,
Few Clouds 1200 ft,
Overcast 1400 ft
LGKC 131650Z 09009KT 8000 FEW003 FEW012TCU OVC014 15/14 Q1011
LGIR - Hraklio
Updated: 14-11-2019 02:20
Mostly Cloudy  
Mostly Cloudy  
   Wind: South 20.4 km/h
Wind: South 20.4 km/h
Temperature: 16°C
Dew Point: 12°C
Humidity: 77%
Barometer: 1009 hPa
Clouds: Mostly Cloudy
Visibility: More than 10 km
Cloud details: Few Clouds 1000 ft,
Few Clouds 1600 ft,
Partly Cloudy 2500 ft,
Mostly Cloudy 8000 ft
LGIR 140020Z 19011KT 9999 FEW010 FEW016TCU SCT025 BKN080 16/12 Q1009 NOSIG

Script developed by  Saratoga-weather.org Adapted for the template by  Weerstation Leuven

You find our weather info also at:

European Weather Network

WeatherCloud

Weather Underground

Hellas Meteo Network

AWEKAS

HAMweather, WeatherForYou, PWS Weather

MeteoPatras.Eu